sensor_id;sensor_type;location;lat;lon;timestamp;P1;durP1;ratioP1;P2;durP2;ratioP2
34832;SDS011;55941;50.800;4.342;2023-02-21T00:00:54;120.93;;;55.63;;
34832;SDS011;55941;50.800;4.342;2023-02-21T00:03:38;127.20;;;58.17;;
34832;SDS011;55941;50.800;4.342;2023-02-21T00:06:23;115.68;;;54.33;;
34832;SDS011;55941;50.800;4.342;2023-02-21T00:09:07;129.45;;;55.13;;
34832;SDS011;55941;50.800;4.342;2023-02-21T00:11:51;121.07;;;55.25;;
34832;SDS011;55941;50.800;4.342;2023-02-21T00:14:38;125.32;;;53.90;;
34832;SDS011;55941;50.800;4.342;2023-02-21T00:17:22;121.00;;;53.28;;
34832;SDS011;55941;50.800;4.342;2023-02-21T00:20:07;120.18;;;53.90;;
34832;SDS011;55941;50.800;4.342;2023-02-21T00:22:52;130.57;;;55.08;;
34832;SDS011;55941;50.800;4.342;2023-02-21T00:25:36;137.57;;;55.28;;
34832;SDS011;55941;50.800;4.342;2023-02-21T00:28:20;124.13;;;55.83;;
34832;SDS011;55941;50.800;4.342;2023-02-21T00:31:05;135.73;;;51.22;;
34832;SDS011;55941;50.800;4.342;2023-02-21T00:33:49;128.70;;;51.75;;
34832;SDS011;55941;50.800;4.342;2023-02-21T00:36:33;105.38;;;49.67;;
34832;SDS011;55941;50.800;4.342;2023-02-21T00:39:18;118.47;;;47.75;;
34832;SDS011;55941;50.800;4.342;2023-02-21T00:42:03;81.18;;;44.22;;
34832;SDS011;55941;50.800;4.342;2023-02-21T00:44:49;87.07;;;44.25;;
34832;SDS011;55941;50.800;4.342;2023-02-21T00:47:33;81.00;;;44.22;;
34832;SDS011;55941;50.800;4.342;2023-02-21T00:50:18;85.25;;;43.35;;
34832;SDS011;55941;50.800;4.342;2023-02-21T00:53:02;116.90;;;44.30;;
34832;SDS011;55941;50.800;4.342;2023-02-21T00:55:46;88.43;;;43.22;;
34832;SDS011;55941;50.800;4.342;2023-02-21T00:58:31;86.68;;;42.83;;
34832;SDS011;55941;50.800;4.342;2023-02-21T01:01:15;90.22;;;44.20;;
34832;SDS011;55941;50.800;4.342;2023-02-21T01:03:59;91.72;;;42.80;;
34832;SDS011;55941;50.800;4.342;2023-02-21T01:06:44;126.03;;;44.20;;
34832;SDS011;55941;50.800;4.342;2023-02-21T01:09:28;103.57;;;43.33;;
34832;SDS011;55941;50.800;4.342;2023-02-21T01:12:13;122.20;;;46.72;;
34832;SDS011;55941;50.800;4.342;2023-02-21T01:14:57;103.28;;;44.90;;
34832;SDS011;55941;50.800;4.342;2023-02-21T01:17:43;125.32;;;46.17;;
34832;SDS011;55941;50.800;4.342;2023-02-21T01:20:27;139.55;;;47.75;;
34832;SDS011;55941;50.800;4.342;2023-02-21T01:23:11;127.43;;;47.50;;
34832;SDS011;55941;50.800;4.342;2023-02-21T01:25:57;120.32;;;46.35;;
34832;SDS011;55941;50.800;4.342;2023-02-21T01:28:41;125.78;;;47.67;;
34832;SDS011;55941;50.800;4.342;2023-02-21T01:31:25;119.20;;;46.17;;
34832;SDS011;55941;50.800;4.342;2023-02-21T01:34:09;107.72;;;44.63;;
34832;SDS011;55941;50.800;4.342;2023-02-21T01:36:53;112.65;;;42.83;;
34832;SDS011;55941;50.800;4.342;2023-02-21T01:39:37;131.60;;;44.58;;
34832;SDS011;55941;50.800;4.342;2023-02-21T01:42:22;91.28;;;41.13;;
34832;SDS011;55941;50.800;4.342;2023-02-21T01:48:21;108.95;;;39.53;;
34832;SDS011;55941;50.800;4.342;2023-02-21T01:51:08;109.80;;;41.33;;
34832;SDS011;55941;50.800;4.342;2023-02-21T01:53:54;100.68;;;41.75;;
34832;SDS011;55941;50.800;4.342;2023-02-21T01:56:39;78.43;;;38.42;;
34832;SDS011;55941;50.800;4.342;2023-02-21T01:59:26;68.93;;;33.42;;
34832;SDS011;55941;50.800;4.342;2023-02-21T02:02:34;63.40;;;31.63;;
34832;SDS011;55941;50.800;4.342;2023-02-21T02:05:42;76.30;;;31.83;;
34832;SDS011;55941;50.800;4.342;2023-02-21T02:08:30;62.92;;;31.20;;
34832;SDS011;55941;50.800;4.342;2023-02-21T02:14:39;74.07;;;33.97;;
34832;SDS011;55941;50.800;4.342;2023-02-21T02:17:23;74.65;;;32.33;;
34832;SDS011;55941;50.800;4.342;2023-02-21T02:23:13;58.72;;;29.25;;
34832;SDS011;55941;50.800;4.342;2023-02-21T02:31:56;78.82;;;28.52;;
34832;SDS011;55941;50.800;4.342;2023-02-21T02:43:22;86.28;;;28.15;;
34832;SDS011;55941;50.800;4.342;2023-02-21T02:46:22;71.55;;;29.40;;
34832;SDS011;55941;50.800;4.342;2023-02-21T02:49:35;53.65;;;27.38;;
34832;SDS011;55941;50.800;4.342;2023-02-21T02:51:49;53.20;;;25.23;;
34832;SDS011;55941;50.800;4.342;2023-02-21T02:56:46;82.38;;;25.67;;
34832;SDS011;55941;50.800;4.342;2023-02-21T02:59:14;120.10;;;30.10;;
34832;SDS011;55941;50.800;4.342;2023-02-21T03:04:17;71.07;;;28.02;;
34832;SDS011;55941;50.800;4.342;2023-02-21T03:07:09;109.95;;;30.27;;
34832;SDS011;55941;50.800;4.342;2023-02-21T03:10:13;65.22;;;29.23;;
34832;SDS011;55941;50.800;4.342;2023-02-21T03:18:23;72.53;;;32.90;;
34832;SDS011;55941;50.800;4.342;2023-02-21T03:20:56;69.63;;;30.83;;
34832;SDS011;55941;50.800;4.342;2023-02-21T03:23:26;73.50;;;28.85;;
34832;SDS011;55941;50.800;4.342;2023-02-21T03:25:58;84.45;;;29.20;;
34832;SDS011;55941;50.800;4.342;2023-02-21T03:28:29;67.93;;;28.88;;
34832;SDS011;55941;50.800;4.342;2023-02-21T03:30:58;55.92;;;26.95;;
34832;SDS011;55941;50.800;4.342;2023-02-21T03:33:26;54.92;;;27.20;;
34832;SDS011;55941;50.800;4.342;2023-02-21T03:35:53;55.92;;;25.88;;
34832;SDS011;55941;50.800;4.342;2023-02-21T03:38:19;59.75;;;25.83;;
34832;SDS011;55941;50.800;4.342;2023-02-21T03:40:48;53.13;;;25.23;;
34832;SDS011;55941;50.800;4.342;2023-02-21T03:43:14;47.08;;;24.35;;
34832;SDS011;55941;50.800;4.342;2023-02-21T03:45:42;56.25;;;24.63;;
34832;SDS011;55941;50.800;4.342;2023-02-21T03:48:08;48.60;;;24.50;;
34832;SDS011;55941;50.800;4.342;2023-02-21T03:50:37;45.40;;;21.77;;
34832;SDS011;55941;50.800;4.342;2023-02-21T03:53:05;44.03;;;22.52;;
34832;SDS011;55941;50.800;4.342;2023-02-21T03:55:31;39.10;;;23.10;;
34832;SDS011;55941;50.800;4.342;2023-02-21T03:57:57;37.50;;;22.45;;
34832;SDS011;55941;50.800;4.342;2023-02-21T04:00:23;35.00;;;22.17;;
34832;SDS011;55941;50.800;4.342;2023-02-21T04:02:49;42.10;;;23.27;;
34832;SDS011;55941;50.800;4.342;2023-02-21T04:05:15;44.47;;;23.05;;
34832;SDS011;55941;50.800;4.342;2023-02-21T04:07:41;44.08;;;23.60;;
34832;SDS011;55941;50.800;4.342;2023-02-21T04:10:07;44.95;;;23.40;;
34832;SDS011;55941;50.800;4.342;2023-02-21T04:12:33;38.70;;;22.40;;
34832;SDS011;55941;50.800;4.342;2023-02-21T04:14:59;38.10;;;22.35;;
34832;SDS011;55941;50.800;4.342;2023-02-21T04:17:25;43.95;;;22.20;;
34832;SDS011;55941;50.800;4.342;2023-02-21T04:19:51;44.58;;;22.60;;
34832;SDS011;55941;50.800;4.342;2023-02-21T04:22:17;48.03;;;22.17;;
34832;SDS011;55941;50.800;4.342;2023-02-21T04:24:43;46.60;;;24.10;;
34832;SDS011;55941;50.800;4.342;2023-02-21T04:27:09;44.30;;;23.08;;
34832;SDS011;55941;50.800;4.342;2023-02-21T04:29:35;41.47;;;23.02;;
34832;SDS011;55941;50.800;4.342;2023-02-21T04:32:01;41.38;;;22.83;;
34832;SDS011;55941;50.800;4.342;2023-02-21T04:34:27;46.55;;;24.02;;
34832;SDS011;55941;50.800;4.342;2023-02-21T04:36:53;39.25;;;21.20;;
34832;SDS011;55941;50.800;4.342;2023-02-21T04:39:19;38.22;;;20.75;;
34832;SDS011;55941;50.800;4.342;2023-02-21T04:41:45;39.47;;;20.23;;
34832;SDS011;55941;50.800;4.342;2023-02-21T04:44:11;39.50;;;20.42;;
34832;SDS011;55941;50.800;4.342;2023-02-21T04:46:37;37.67;;;19.13;;
34832;SDS011;55941;50.800;4.342;2023-02-21T04:49:03;33.50;;;18.90;;
34832;SDS011;55941;50.800;4.342;2023-02-21T04:51:29;35.10;;;18.92;;
34832;SDS011;55941;50.800;4.342;2023-02-21T04:53:56;49.53;;;20.15;;
34832;SDS011;55941;50.800;4.342;2023-02-21T04:56:23;44.63;;;20.05;;
34832;SDS011;55941;50.800;4.342;2023-02-21T04:58:51;32.92;;;17.70;;
34832;SDS011;55941;50.800;4.342;2023-02-21T05:01:18;48.28;;;20.85;;
34832;SDS011;55941;50.800;4.342;2023-02-21T05:03:45;36.05;;;19.20;;
34832;SDS011;55941;50.800;4.342;2023-02-21T05:06:18;40.80;;;19.70;;
34832;SDS011;55941;50.800;4.342;2023-02-21T05:08:45;37.92;;;20.20;;
34832;SDS011;55941;50.800;4.342;2023-02-21T05:11:11;35.95;;;18.35;;
34832;SDS011;55941;50.800;4.342;2023-02-21T05:13:37;37.30;;;18.85;;
34832;SDS011;55941;50.800;4.342;2023-02-21T05:16:04;33.58;;;17.98;;
34832;SDS011;55941;50.800;4.342;2023-02-21T05:18:30;32.10;;;17.35;;
34832;SDS011;55941;50.800;4.342;2023-02-21T05:20:59;30.35;;;16.15;;
34832;SDS011;55941;50.800;4.342;2023-02-21T05:23:25;29.73;;;15.98;;
34832;SDS011;55941;50.800;4.342;2023-02-21T05:26:14;27.80;;;15.57;;
34832;SDS011;55941;50.800;4.342;2023-02-21T05:28:40;34.40;;;16.45;;
34832;SDS011;55941;50.800;4.342;2023-02-21T05:31:06;31.00;;;16.30;;
34832;SDS011;55941;50.800;4.342;2023-02-21T05:33:32;30.33;;;16.45;;
34832;SDS011;55941;50.800;4.342;2023-02-21T05:35:59;28.15;;;15.52;;
34832;SDS011;55941;50.800;4.342;2023-02-21T05:38:25;24.15;;;14.30;;
34832;SDS011;55941;50.800;4.342;2023-02-21T05:40:51;30.67;;;14.52;;
34832;SDS011;55941;50.800;4.342;2023-02-21T05:43:17;28.23;;;14.57;;
34832;SDS011;55941;50.800;4.342;2023-02-21T05:45:43;28.10;;;14.90;;
34832;SDS011;55941;50.800;4.342;2023-02-21T05:48:09;26.33;;;13.88;;
34832;SDS011;55941;50.800;4.342;2023-02-21T05:50:35;25.08;;;14.52;;
34832;SDS011;55941;50.800;4.342;2023-02-21T05:53:03;22.20;;;13.48;;
34832;SDS011;55941;50.800;4.342;2023-02-21T05:55:29;27.33;;;14.02;;
34832;SDS011;55941;50.800;4.342;2023-02-21T05:57:56;25.73;;;14.80;;
34832;SDS011;55941;50.800;4.342;2023-02-21T06:00:26;28.00;;;15.07;;
34832;SDS011;55941;50.800;4.342;2023-02-21T06:05:20;24.95;;;14.25;;
34832;SDS011;55941;50.800;4.342;2023-02-21T06:07:47;28.60;;;14.80;;
34832;SDS011;55941;50.800;4.342;2023-02-21T06:10:13;30.13;;;16.42;;
34832;SDS011;55941;50.800;4.342;2023-02-21T06:12:40;28.33;;;15.30;;
34832;SDS011;55941;50.800;4.342;2023-02-21T06:15:06;28.02;;;14.00;;
34832;SDS011;55941;50.800;4.342;2023-02-21T06:17:35;26.17;;;14.18;;
34832;SDS011;55941;50.800;4.342;2023-02-21T06:20:02;27.52;;;14.40;;
34832;SDS011;55941;50.800;4.342;2023-02-21T06:22:28;26.33;;;13.52;;
34832;SDS011;55941;50.800;4.342;2023-02-21T06:24:54;30.67;;;14.88;;
34832;SDS011;55941;50.800;4.342;2023-02-21T06:27:20;22.63;;;13.02;;
34832;SDS011;55941;50.800;4.342;2023-02-21T06:29:46;22.17;;;11.90;;
34832;SDS011;55941;50.800;4.342;2023-02-21T06:32:13;21.70;;;11.40;;
34832;SDS011;55941;50.800;4.342;2023-02-21T06:34:39;18.17;;;10.07;;
34832;SDS011;55941;50.800;4.342;2023-02-21T06:37:07;17.90;;;10.45;;
34832;SDS011;55941;50.800;4.342;2023-02-21T06:39:33;17.27;;;11.05;;
34832;SDS011;55941;50.800;4.342;2023-02-21T06:42:14;15.80;;;10.48;;
34832;SDS011;55941;50.800;4.342;2023-02-21T06:44:43;23.30;;;11.85;;
34832;SDS011;55941;50.800;4.342;2023-02-21T06:47:09;20.15;;;11.27;;
34832;SDS011;55941;50.800;4.342;2023-02-21T06:49:35;25.02;;;13.65;;
34832;SDS011;55941;50.800;4.342;2023-02-21T06:52:01;28.38;;;14.63;;
34832;SDS011;55941;50.800;4.342;2023-02-21T06:54:28;34.25;;;16.85;;
34832;SDS011;55941;50.800;4.342;2023-02-21T06:56:54;36.00;;;17.15;;
34832;SDS011;55941;50.800;4.342;2023-02-21T06:59:21;37.58;;;17.98;;
34832;SDS011;55941;50.800;4.342;2023-02-21T07:01:47;38.80;;;18.80;;
34832;SDS011;55941;50.800;4.342;2023-02-21T07:04:13;42.95;;;19.58;;
34832;SDS011;55941;50.800;4.342;2023-02-21T07:06:39;37.85;;;18.92;;
34832;SDS011;55941;50.800;4.342;2023-02-21T07:09:05;41.72;;;20.23;;
34832;SDS011;55941;50.800;4.342;2023-02-21T07:11:32;41.47;;;21.27;;
34832;SDS011;55941;50.800;4.342;2023-02-21T07:13:59;47.38;;;22.48;;
34832;SDS011;55941;50.800;4.342;2023-02-21T07:16:26;48.38;;;21.42;;
34832;SDS011;55941;50.800;4.342;2023-02-21T07:18:52;42.42;;;22.00;;
34832;SDS011;55941;50.800;4.342;2023-02-21T07:21:18;44.88;;;22.58;;
34832;SDS011;55941;50.800;4.342;2023-02-21T07:23:46;49.17;;;23.20;;
34832;SDS011;55941;50.800;4.342;2023-02-21T07:26:12;44.20;;;23.25;;
34832;SDS011;55941;50.800;4.342;2023-02-21T07:28:40;48.22;;;24.02;;
34832;SDS011;55941;50.800;4.342;2023-02-21T07:31:07;56.08;;;26.95;;
34832;SDS011;55941;50.800;4.342;2023-02-21T07:33:34;51.42;;;25.95;;
34832;SDS011;55941;50.800;4.342;2023-02-21T07:36:01;62.50;;;28.25;;
34832;SDS011;55941;50.800;4.342;2023-02-21T07:38:28;64.15;;;28.90;;
34832;SDS011;55941;50.800;4.342;2023-02-21T07:40:57;60.15;;;28.17;;
34832;SDS011;55941;50.800;4.342;2023-02-21T07:43:26;63.13;;;28.17;;
34832;SDS011;55941;50.800;4.342;2023-02-21T07:45:53;66.78;;;28.20;;
34832;SDS011;55941;50.800;4.342;2023-02-21T07:48:19;72.90;;;31.50;;
34832;SDS011;55941;50.800;4.342;2023-02-21T07:50:45;68.70;;;30.42;;
34832;SDS011;55941;50.800;4.342;2023-02-21T07:53:12;67.22;;;29.42;;
34832;SDS011;55941;50.800;4.342;2023-02-21T07:55:39;69.18;;;28.63;;
34832;SDS011;55941;50.800;4.342;2023-02-21T07:58:05;71.80;;;30.20;;
34832;SDS011;55941;50.800;4.342;2023-02-21T08:00:31;80.10;;;32.13;;
34832;SDS011;55941;50.800;4.342;2023-02-21T08:02:57;81.68;;;31.20;;
34832;SDS011;55941;50.800;4.342;2023-02-21T08:05:24;81.75;;;32.92;;
34832;SDS011;55941;50.800;4.342;2023-02-21T08:07:50;89.75;;;33.90;;
34832;SDS011;55941;50.800;4.342;2023-02-21T08:10:21;87.60;;;32.70;;
34832;SDS011;55941;50.800;4.342;2023-02-21T08:12:49;82.15;;;32.80;;
34832;SDS011;55941;50.800;4.342;2023-02-21T08:15:15;74.68;;;31.55;;
34832;SDS011;55941;50.800;4.342;2023-02-21T08:17:41;78.43;;;30.80;;
34832;SDS011;55941;50.800;4.342;2023-02-21T08:20:09;75.55;;;30.48;;
34832;SDS011;55941;50.800;4.342;2023-02-21T08:22:35;81.57;;;30.98;;
34832;SDS011;55941;50.800;4.342;2023-02-21T08:25:01;74.28;;;30.17;;
34832;SDS011;55941;50.800;4.342;2023-02-21T08:27:27;75.95;;;30.77;;
34832;SDS011;55941;50.800;4.342;2023-02-21T08:29:53;70.13;;;30.45;;
34832;SDS011;55941;50.800;4.342;2023-02-21T08:32:19;65.05;;;29.50;;
34832;SDS011;55941;50.800;4.342;2023-02-21T08:34:51;70.97;;;28.95;;
34832;SDS011;55941;50.800;4.342;2023-02-21T08:37:17;62.38;;;28.20;;
34832;SDS011;55941;50.800;4.342;2023-02-21T08:39:50;53.95;;;26.50;;
34832;SDS011;55941;50.800;4.342;2023-02-21T08:42:19;45.33;;;23.60;;
34832;SDS011;55941;50.800;4.342;2023-02-21T08:44:46;44.40;;;22.85;;
34832;SDS011;55941;50.800;4.342;2023-02-21T08:47:12;44.97;;;22.30;;
34832;SDS011;55941;50.800;4.342;2023-02-21T08:49:39;41.38;;;21.60;;
34832;SDS011;55941;50.800;4.342;2023-02-21T08:52:09;45.83;;;22.80;;
34832;SDS011;55941;50.800;4.342;2023-02-21T08:54:35;46.33;;;22.20;;
34832;SDS011;55941;50.800;4.342;2023-02-21T08:57:01;43.67;;;22.42;;
34832;SDS011;55941;50.800;4.342;2023-02-21T08:59:27;43.90;;;22.40;;
34832;SDS011;55941;50.800;4.342;2023-02-21T09:01:57;43.75;;;23.15;;
34832;SDS011;55941;50.800;4.342;2023-02-21T09:04:23;39.78;;;20.88;;
34832;SDS011;55941;50.800;4.342;2023-02-21T09:06:51;37.67;;;21.95;;
34832;SDS011;55941;50.800;4.342;2023-02-21T09:09:18;40.58;;;21.13;;
34832;SDS011;55941;50.800;4.342;2023-02-21T09:11:45;46.88;;;20.50;;
34832;SDS011;55941;50.800;4.342;2023-02-21T09:14:13;42.55;;;21.48;;
34832;SDS011;55941;50.800;4.342;2023-02-21T09:16:39;37.72;;;20.45;;
34832;SDS011;55941;50.800;4.342;2023-02-21T09:19:06;34.42;;;19.98;;
34832;SDS011;55941;50.800;4.342;2023-02-21T09:21:33;35.60;;;20.35;;
34832;SDS011;55941;50.800;4.342;2023-02-21T09:23:59;32.90;;;18.92;;
34832;SDS011;55941;50.800;4.342;2023-02-21T09:26:26;33.33;;;18.85;;
34832;SDS011;55941;50.800;4.342;2023-02-21T09:28:56;32.15;;;19.17;;
34832;SDS011;55941;50.800;4.342;2023-02-21T09:31:22;41.72;;;21.10;;
34832;SDS011;55941;50.800;4.342;2023-02-21T09:33:48;32.65;;;19.80;;
34832;SDS011;55941;50.800;4.342;2023-02-21T09:36:14;34.08;;;20.25;;
34832;SDS011;55941;50.800;4.342;2023-02-21T09:38:40;35.45;;;21.38;;
34832;SDS011;55941;50.800;4.342;2023-02-21T09:41:07;38.67;;;21.45;;
34832;SDS011;55941;50.800;4.342;2023-02-21T09:43:37;44.55;;;22.00;;
34832;SDS011;55941;50.800;4.342;2023-02-21T09:46:13;42.95;;;20.85;;
34832;SDS011;55941;50.800;4.342;2023-02-21T09:49:00;36.42;;;19.88;;
34832;SDS011;55941;50.800;4.342;2023-02-21T09:51:29;37.67;;;21.00;;
34832;SDS011;55941;50.800;4.342;2023-02-21T09:53:56;38.75;;;21.42;;
34832;SDS011;55941;50.800;4.342;2023-02-21T09:56:27;43.72;;;22.13;;
34832;SDS011;55941;50.800;4.342;2023-02-21T09:58:58;38.35;;;21.67;;
34832;SDS011;55941;50.800;4.342;2023-02-21T10:01:46;36.10;;;21.35;;
34832;SDS011;55941;50.800;4.342;2023-02-21T10:09:54;40.83;;;23.52;;
34832;SDS011;55941;50.800;4.342;2023-02-21T10:12:31;40.75;;;22.52;;
34832;SDS011;55941;50.800;4.342;2023-02-21T10:17:55;59.15;;;30.15;;
34832;SDS011;55941;50.800;4.342;2023-02-21T10:20:35;69.70;;;32.55;;
34832;SDS011;55941;50.800;4.342;2023-02-21T10:23:14;58.17;;;29.92;;
34832;SDS011;55941;50.800;4.342;2023-02-21T10:25:45;62.78;;;32.20;;
34832;SDS011;55941;50.800;4.342;2023-02-21T10:28:16;70.57;;;33.75;;
34832;SDS011;55941;50.800;4.342;2023-02-21T10:30:47;59.97;;;31.58;;
34832;SDS011;55941;50.800;4.342;2023-02-21T10:33:17;60.78;;;29.52;;
34832;SDS011;55941;50.800;4.342;2023-02-21T10:35:43;57.47;;;28.25;;
34832;SDS011;55941;50.800;4.342;2023-02-21T10:38:11;51.20;;;27.00;;
34832;SDS011;55941;50.800;4.342;2023-02-21T10:40:43;51.72;;;25.35;;
34832;SDS011;55941;50.800;4.342;2023-02-21T10:48:34;44.65;;;19.65;;
34832;SDS011;55941;50.800;4.342;2023-02-21T10:53:41;44.35;;;24.35;;
34832;SDS011;55941;50.800;4.342;2023-02-21T10:58:44;42.22;;;23.60;;
34832;SDS011;55941;50.800;4.342;2023-02-21T11:04:04;43.38;;;24.95;;
34832;SDS011;55941;50.800;4.342;2023-02-21T11:06:48;48.13;;;25.30;;
34832;SDS011;55941;50.800;4.342;2023-02-21T11:14:40;52.55;;;24.33;;
34832;SDS011;55941;50.800;4.342;2023-02-21T11:17:15;40.80;;;24.00;;
34832;SDS011;55941;50.800;4.342;2023-02-21T11:19:46;42.97;;;23.13;;
34832;SDS011;55941;50.800;4.342;2023-02-21T11:22:20;35.17;;;20.77;;
34832;SDS011;55941;50.800;4.342;2023-02-21T11:24:56;46.30;;;22.23;;
34832;SDS011;55941;50.800;4.342;2023-02-21T11:27:23;37.70;;;22.50;;
34832;SDS011;55941;50.800;4.342;2023-02-21T11:29:50;38.13;;;21.95;;
34832;SDS011;55941;50.800;4.342;2023-02-21T11:32:28;36.95;;;20.48;;
34832;SDS011;55941;50.800;4.342;2023-02-21T11:35:01;32.20;;;20.73;;
34832;SDS011;55941;50.800;4.342;2023-02-21T11:40:42;39.70;;;21.50;;
34832;SDS011;55941;50.800;4.342;2023-02-21T11:43:19;38.83;;;21.80;;
34832;SDS011;55941;50.800;4.342;2023-02-21T11:48:47;40.13;;;22.30;;
34832;SDS011;55941;50.800;4.342;2023-02-21T11:51:32;46.95;;;24.13;;
34832;SDS011;55941;50.800;4.342;2023-02-21T11:54:03;42.25;;;22.70;;
34832;SDS011;55941;50.800;4.342;2023-02-21T11:56:35;42.17;;;23.70;;
34832;SDS011;55941;50.800;4.342;2023-02-21T11:59:21;41.25;;;24.33;;
34832;SDS011;55941;50.800;4.342;2023-02-21T12:12:58;40.20;;;22.67;;
34832;SDS011;55941;50.800;4.342;2023-02-21T12:18:38;38.53;;;21.65;;
34832;SDS011;55941;50.800;4.342;2023-02-21T12:23:52;33.15;;;20.52;;
34832;SDS011;55941;50.800;4.342;2023-02-21T12:29:23;38.60;;;21.00;;
34832;SDS011;55941;50.800;4.342;2023-02-21T12:35:17;39.95;;;20.67;;
34832;SDS011;55941;50.800;4.342;2023-02-21T12:40:46;32.28;;;18.75;;
34832;SDS011;55941;50.800;4.342;2023-02-21T12:48:32;30.33;;;18.00;;
34832;SDS011;55941;50.800;4.342;2023-02-21T12:51:15;30.05;;;18.13;;
34832;SDS011;55941;50.800;4.342;2023-02-21T12:53:47;30.60;;;17.73;;
34832;SDS011;55941;50.800;4.342;2023-02-21T12:56:23;31.85;;;18.17;;
34832;SDS011;55941;50.800;4.342;2023-02-21T12:58:58;31.52;;;17.50;;
34832;SDS011;55941;50.800;4.342;2023-02-21T13:04:17;29.88;;;18.60;;
34832;SDS011;55941;50.800;4.342;2023-02-21T13:07:05;30.75;;;18.13;;
34832;SDS011;55941;50.800;4.342;2023-02-21T13:09:40;32.60;;;19.50;;
34832;SDS011;55941;50.800;4.342;2023-02-21T13:12:16;33.40;;;18.55;;
34832;SDS011;55941;50.800;4.342;2023-02-21T13:14:48;35.55;;;19.05;;
34832;SDS011;55941;50.800;4.342;2023-02-21T13:28:37;27.52;;;18.50;;
34832;SDS011;55941;50.800;4.342;2023-02-21T13:31:04;29.38;;;19.80;;
34832;SDS011;55941;50.800;4.342;2023-02-21T13:33:39;28.13;;;18.90;;
34832;SDS011;55941;50.800;4.342;2023-02-21T13:39:11;36.38;;;19.60;;
34832;SDS011;55941;50.800;4.342;2023-02-21T13:41:47;32.95;;;20.63;;
34832;SDS011;55941;50.800;4.342;2023-02-21T13:57:44;26.88;;;17.65;;
34832;SDS011;55941;50.800;4.342;2023-02-21T14:03:09;28.17;;;17.65;;
34832;SDS011;55941;50.800;4.342;2023-02-21T14:08:31;24.85;;;17.90;;
34832;SDS011;55941;50.800;4.342;2023-02-21T14:18:50;25.52;;;15.80;;
34832;SDS011;55941;50.800;4.342;2023-02-21T14:24:19;24.20;;;16.00;;
34832;SDS011;55941;50.800;4.342;2023-02-21T14:39:50;21.70;;;14.43;;
34832;SDS011;55941;50.800;4.342;2023-02-21T14:55:51;19.13;;;13.95;;
34832;SDS011;55941;50.800;4.342;2023-02-21T14:58:55;30.00;;;15.77;;
34832;SDS011;55941;50.800;4.342;2023-02-21T15:01:44;19.10;;;14.05;;
34832;SDS011;55941;50.800;4.342;2023-02-21T15:07:00;19.98;;;12.93;;
34832;SDS011;55941;50.800;4.342;2023-02-21T15:09:43;22.67;;;13.10;;
34832;SDS011;55941;50.800;4.342;2023-02-21T15:12:16;23.35;;;12.77;;
34832;SDS011;55941;50.800;4.342;2023-02-21T15:14:46;18.73;;;13.00;;
34832;SDS011;55941;50.800;4.342;2023-02-21T15:17:18;23.50;;;13.18;;
34832;SDS011;55941;50.800;4.342;2023-02-21T15:19:46;18.67;;;13.07;;
34832;SDS011;55941;50.800;4.342;2023-02-21T15:22:25;19.65;;;12.45;;
34832;SDS011;55941;50.800;4.342;2023-02-21T15:24:58;17.40;;;11.93;;
34832;SDS011;55941;50.800;4.342;2023-02-21T15:27:50;20.05;;;11.63;;
34832;SDS011;55941;50.800;4.342;2023-02-21T15:32:56;18.52;;;12.70;;
34832;SDS011;55941;50.800;4.342;2023-02-21T15:35:37;26.85;;;15.35;;
34832;SDS011;55941;50.800;4.342;2023-02-21T15:38:08;24.38;;;15.27;;
34832;SDS011;55941;50.800;4.342;2023-02-21T15:40:40;23.67;;;16.40;;
34832;SDS011;55941;50.800;4.342;2023-02-21T15:43:06;26.15;;;15.27;;
34832;SDS011;55941;50.800;4.342;2023-02-21T15:45:40;19.35;;;14.45;;
34832;SDS011;55941;50.800;4.342;2023-02-21T15:48:10;27.95;;;15.55;;
34832;SDS011;55941;50.800;4.342;2023-02-21T15:53:23;22.55;;;15.73;;
34832;SDS011;55941;50.800;4.342;2023-02-21T15:55:51;29.98;;;15.65;;
34832;SDS011;55941;50.800;4.342;2023-02-21T15:58:19;21.20;;;15.50;;
34832;SDS011;55941;50.800;4.342;2023-02-21T16:00:48;24.95;;;15.32;;
34832;SDS011;55941;50.800;4.342;2023-02-21T16:06:12;21.98;;;15.10;;
34832;SDS011;55941;50.800;4.342;2023-02-21T16:11:39;27.65;;;18.50;;
34832;SDS011;55941;50.800;4.342;2023-02-21T16:14:24;23.23;;;14.88;;
34832;SDS011;55941;50.800;4.342;2023-02-21T16:17:06;23.55;;;15.57;;
34832;SDS011;55941;50.800;4.342;2023-02-21T16:19:45;24.83;;;14.05;;
34832;SDS011;55941;50.800;4.342;2023-02-21T16:22:35;25.33;;;15.40;;
34832;SDS011;55941;50.800;4.342;2023-02-21T16:27:49;25.30;;;15.65;;
34832;SDS011;55941;50.800;4.342;2023-02-21T16:30:22;22.20;;;15.05;;
34832;SDS011;55941;50.800;4.342;2023-02-21T16:32:52;23.38;;;15.25;;
34832;SDS011;55941;50.800;4.342;2023-02-21T16:35:24;24.45;;;16.45;;
34832;SDS011;55941;50.800;4.342;2023-02-21T16:37:52;25.63;;;14.48;;
34832;SDS011;55941;50.800;4.342;2023-02-21T16:40:23;23.38;;;15.05;;
34832;SDS011;55941;50.800;4.342;2023-02-21T16:42:53;22.50;;;15.68;;
34832;SDS011;55941;50.800;4.342;2023-02-21T16:45:20;26.60;;;15.52;;
34832;SDS011;55941;50.800;4.342;2023-02-21T16:47:47;18.30;;;13.30;;
34832;SDS011;55941;50.800;4.342;2023-02-21T16:50:20;23.33;;;15.30;;
34832;SDS011;55941;50.800;4.342;2023-02-21T16:52:52;23.50;;;15.77;;
34832;SDS011;55941;50.800;4.342;2023-02-21T16:55:18;27.05;;;15.00;;
34832;SDS011;55941;50.800;4.342;2023-02-21T16:57:47;30.83;;;15.98;;
34832;SDS011;55941;50.800;4.342;2023-02-21T17:00:16;33.90;;;16.48;;
34832;SDS011;55941;50.800;4.342;2023-02-21T17:02:44;26.48;;;16.00;;
34832;SDS011;55941;50.800;4.342;2023-02-21T17:05:11;27.35;;;16.27;;
34832;SDS011;55941;50.800;4.342;2023-02-21T17:07:37;30.42;;;15.63;;
34832;SDS011;55941;50.800;4.342;2023-02-21T17:10:03;28.17;;;14.80;;
34832;SDS011;55941;50.800;4.342;2023-02-21T17:12:29;29.00;;;16.60;;
34832;SDS011;55941;50.800;4.342;2023-02-21T17:14:55;22.58;;;15.63;;
34832;SDS011;55941;50.800;4.342;2023-02-21T17:17:21;27.63;;;17.20;;
34832;SDS011;55941;50.800;4.342;2023-02-21T17:19:47;25.20;;;16.13;;
34832;SDS011;55941;50.800;4.342;2023-02-21T17:22:14;26.75;;;17.67;;
34832;SDS011;55941;50.800;4.342;2023-02-21T17:24:40;24.30;;;17.23;;
34832;SDS011;55941;50.800;4.342;2023-02-21T17:27:06;33.88;;;17.77;;
34832;SDS011;55941;50.800;4.342;2023-02-21T17:29:33;28.83;;;18.42;;
34832;SDS011;55941;50.800;4.342;2023-02-21T17:31:58;29.40;;;17.50;;
34832;SDS011;55941;50.800;4.342;2023-02-21T17:34:30;29.80;;;17.65;;
34832;SDS011;55941;50.800;4.342;2023-02-21T17:37:00;32.63;;;17.13;;
34832;SDS011;55941;50.800;4.342;2023-02-21T17:39:26;41.03;;;18.95;;
34832;SDS011;55941;50.800;4.342;2023-02-21T17:41:52;30.35;;;18.73;;
34832;SDS011;55941;50.800;4.342;2023-02-21T17:44:19;25.00;;;17.00;;
34832;SDS011;55941;50.800;4.342;2023-02-21T17:46:51;41.42;;;18.17;;
34832;SDS011;55941;50.800;4.342;2023-02-21T17:49:21;32.72;;;19.35;;
34832;SDS011;55941;50.800;4.342;2023-02-21T17:51:49;32.30;;;19.33;;
34832;SDS011;55941;50.800;4.342;2023-02-21T17:54:17;34.67;;;20.58;;
34832;SDS011;55941;50.800;4.342;2023-02-21T17:56:46;32.70;;;19.42;;
34832;SDS011;55941;50.800;4.342;2023-02-21T17:59:12;32.90;;;20.35;;
34832;SDS011;55941;50.800;4.342;2023-02-21T18:01:39;34.88;;;20.63;;